sensor_id;sensor_type;location;lat;lon;timestamp;pressure;altitude;pressure_sealevel;temperature
74750;BMP280;63269;53.330;-6.288;2022-12-18T00:01:36;101231.38;;;19.68
74750;BMP280;63269;53.330;-6.288;2022-12-18T00:04:06;101228.31;;;19.70
74750;BMP280;63269;53.330;-6.288;2022-12-18T00:06:32;101228.31;;;19.70
74750;BMP280;63269;53.330;-6.288;2022-12-18T00:08:58;101218.47;;;19.67
74750;BMP280;63269;53.330;-6.288;2022-12-18T00:11:27;101221.81;;;19.71
74750;BMP280;63269;53.330;-6.288;2022-12-18T00:13:54;101229.31;;;19.76
74750;BMP280;63269;53.330;-6.288;2022-12-18T00:16:22;101229.31;;;19.76
74750;BMP280;63269;53.330;-6.288;2022-12-18T00:18:49;101227.00;;;19.78
74750;BMP280;63269;53.330;-6.288;2022-12-18T00:21:15;101227.00;;;19.78
74750;BMP280;63269;53.330;-6.288;2022-12-18T00:23:42;101220.44;;;19.83
74750;BMP280;63269;53.330;-6.288;2022-12-18T00:26:15;101224.56;;;19.84
74750;BMP280;63269;53.330;-6.288;2022-12-18T00:28:41;101223.44;;;19.85
74750;BMP280;63269;53.330;-6.288;2022-12-18T00:31:09;101231.78;;;19.87
74750;BMP280;63269;53.330;-6.288;2022-12-18T00:33:36;101231.78;;;19.87
74750;BMP280;63269;53.330;-6.288;2022-12-18T00:36:27;101236.25;;;19.90
74750;BMP280;63269;53.330;-6.288;2022-12-18T00:38:53;101236.25;;;19.90
74750;BMP280;63269;53.330;-6.288;2022-12-18T00:41:18;101227.88;;;19.91
74750;BMP280;63269;53.330;-6.288;2022-12-18T00:44:04;101224.03;;;19.92
74750;BMP280;63269;53.330;-6.288;2022-12-18T00:46:29;101226.28;;;19.94
74750;BMP280;63269;53.330;-6.288;2022-12-18T00:48:55;101223.63;;;19.94
74750;BMP280;63269;53.330;-6.288;2022-12-18T00:51:20;101216.38;;;19.94
74750;BMP280;63269;53.330;-6.288;2022-12-18T00:53:46;101212.88;;;19.97
74750;BMP280;63269;53.330;-6.288;2022-12-18T00:56:11;101212.88;;;19.97
74750;BMP280;63269;53.330;-6.288;2022-12-18T00:58:37;101203.41;;;19.96
74750;BMP280;63269;53.330;-6.288;2022-12-18T01:01:05;101208.66;;;20.00
74750;BMP280;63269;53.330;-6.288;2022-12-18T01:03:31;101198.75;;;20.01
74750;BMP280;63269;53.330;-6.288;2022-12-18T01:05:56;101198.75;;;20.01
74750;BMP280;63269;53.330;-6.288;2022-12-18T01:08:22;101191.94;;;20.00
74750;BMP280;63269;53.330;-6.288;2022-12-18T01:10:47;101180.44;;;20.03
74750;BMP280;63269;53.330;-6.288;2022-12-18T01:13:13;101180.44;;;20.03
74750;BMP280;63269;53.330;-6.288;2022-12-18T01:15:39;101187.25;;;20.04
74750;BMP280;63269;53.330;-6.288;2022-12-18T01:18:05;101188.03;;;20.04
74750;BMP280;63269;53.330;-6.288;2022-12-18T01:20:31;101178.13;;;20.05
74750;BMP280;63269;53.330;-6.288;2022-12-18T01:22:56;101167.47;;;20.05
74750;BMP280;63269;53.330;-6.288;2022-12-18T01:25:21;101167.47;;;20.05
74750;BMP280;63269;53.330;-6.288;2022-12-18T01:27:47;101164.81;;;20.05
74750;BMP280;63269;53.330;-6.288;2022-12-18T01:30:12;101176.94;;;20.06
74750;BMP280;63269;53.330;-6.288;2022-12-18T01:32:38;101176.94;;;20.06
74750;BMP280;63269;53.330;-6.288;2022-12-18T01:35:04;101155.97;;;20.08
74750;BMP280;63269;53.330;-6.288;2022-12-18T01:37:29;101155.97;;;20.08
74750;BMP280;63269;53.330;-6.288;2022-12-18T01:39:55;101143.41;;;20.08
74750;BMP280;63269;53.330;-6.288;2022-12-18T01:42:21;101147.56;;;20.09
74750;BMP280;63269;53.330;-6.288;2022-12-18T01:50:11;101120.53;;;20.11
74750;BMP280;63269;53.330;-6.288;2022-12-18T01:52:38;101107.63;;;20.09
74750;BMP280;63269;53.330;-6.288;2022-12-18T01:55:06;101107.63;;;20.09
74750;BMP280;63269;53.330;-6.288;2022-12-18T01:57:34;101108.34;;;20.10
74750;BMP280;63269;53.330;-6.288;2022-12-18T02:00:04;101101.13;;;20.10
74750;BMP280;63269;53.330;-6.288;2022-12-18T02:02:30;101093.13;;;20.10
74750;BMP280;63269;53.330;-6.288;2022-12-18T02:04:56;101083.25;;;20.11
74750;BMP280;63269;53.330;-6.288;2022-12-18T02:07:36;101077.91;;;20.11
74750;BMP280;63269;53.330;-6.288;2022-12-18T02:15:59;101069.81;;;20.14
74750;BMP280;63269;53.330;-6.288;2022-12-18T02:18:33;101077.09;;;20.14
74750;BMP280;63269;53.330;-6.288;2022-12-18T02:24:18;101078.16;;;20.16
74750;BMP280;63269;53.330;-6.288;2022-12-18T02:26:55;101083.13;;;20.14
74750;BMP280;63269;53.330;-6.288;2022-12-18T02:29:39;101079.31;;;20.15
74750;BMP280;63269;53.330;-6.288;2022-12-18T02:32:09;101079.31;;;20.15
74750;BMP280;63269;53.330;-6.288;2022-12-18T02:34:38;101064.84;;;20.16
74750;BMP280;63269;53.330;-6.288;2022-12-18T02:37:07;101051.13;;;20.18
74750;BMP280;63269;53.330;-6.288;2022-12-18T02:39:36;101052.56;;;20.19
74750;BMP280;63269;53.330;-6.288;2022-12-18T02:42:02;101052.56;;;20.19
74750;BMP280;63269;53.330;-6.288;2022-12-18T02:44:34;101053.78;;;20.18
74750;BMP280;63269;53.330;-6.288;2022-12-18T02:47:00;101049.19;;;20.18
74750;BMP280;63269;53.330;-6.288;2022-12-18T02:55:23;101050.25;;;20.21
74750;BMP280;63269;53.330;-6.288;2022-12-18T02:58:09;101048.00;;;20.20
74750;BMP280;63269;53.330;-6.288;2022-12-18T03:00:42;101032.78;;;20.20
74750;BMP280;63269;53.330;-6.288;2022-12-18T03:03:30;101019.81;;;20.22
74750;BMP280;63269;53.330;-6.288;2022-12-18T03:06:05;101019.81;;;20.22
74750;BMP280;63269;53.330;-6.288;2022-12-18T03:08:39;101017.88;;;20.23
74750;BMP280;63269;53.330;-6.288;2022-12-18T03:11:11;100994.63;;;20.23
74750;BMP280;63269;53.330;-6.288;2022-12-18T03:13:48;100986.63;;;20.23
74750;BMP280;63269;53.330;-6.288;2022-12-18T03:16:22;100977.50;;;20.24
74750;BMP280;63269;53.330;-6.288;2022-12-18T03:18:52;100968.75;;;20.24
74750;BMP280;63269;53.330;-6.288;2022-12-18T03:21:22;100968.75;;;20.24
74750;BMP280;63269;53.330;-6.288;2022-12-18T03:23:51;100961.09;;;20.26
74750;BMP280;63269;53.330;-6.288;2022-12-18T03:26:26;100949.28;;;20.27
74750;BMP280;63269;53.330;-6.288;2022-12-18T03:28:56;100944.69;;;20.27
74750;BMP280;63269;53.330;-6.288;2022-12-18T03:31:23;100944.69;;;20.27
74750;BMP280;63269;53.330;-6.288;2022-12-18T03:33:55;100939.78;;;20.26
74750;BMP280;63269;53.330;-6.288;2022-12-18T03:36:21;100939.78;;;20.26
74750;BMP280;63269;53.330;-6.288;2022-12-18T03:38:47;100934.78;;;20.28
74750;BMP280;63269;53.330;-6.288;2022-12-18T03:44:03;100945.03;;;20.29
74750;BMP280;63269;53.330;-6.288;2022-12-18T03:46:48;100954.50;;;20.30
74750;BMP280;63269;53.330;-6.288;2022-12-18T03:49:25;100945.03;;;20.29
74750;BMP280;63269;53.330;-6.288;2022-12-18T03:52:02;100945.03;;;20.29
74750;BMP280;63269;53.330;-6.288;2022-12-18T03:54:29;100960.59;;;20.31
74750;BMP280;63269;53.330;-6.288;2022-12-18T03:57:18;100952.59;;;20.31
74750;BMP280;63269;53.330;-6.288;2022-12-18T03:59:45;100944.59;;;20.31
74750;BMP280;63269;53.330;-6.288;2022-12-18T04:02:13;100944.59;;;20.31
74750;BMP280;63269;53.330;-6.288;2022-12-18T04:04:40;100924.03;;;20.31
74750;BMP280;63269;53.330;-6.288;2022-12-18T04:07:07;100925.59;;;20.29
74750;BMP280;63269;53.330;-6.288;2022-12-18T04:09:34;100925.59;;;20.29
74750;BMP280;63269;53.330;-6.288;2022-12-18T04:12:01;100923.81;;;20.26
74750;BMP280;63269;53.330;-6.288;2022-12-18T04:14:26;100923.81;;;20.26
74750;BMP280;63269;53.330;-6.288;2022-12-18T04:16:51;100921.56;;;20.24
74750;BMP280;63269;53.330;-6.288;2022-12-18T04:19:17;100915.16;;;20.22
74750;BMP280;63269;53.330;-6.288;2022-12-18T04:21:42;100914.06;;;20.19
74750;BMP280;63269;53.330;-6.288;2022-12-18T04:24:08;100900.03;;;20.18
74750;BMP280;63269;53.330;-6.288;2022-12-18T04:26:33;100903.84;;;20.17
74750;BMP280;63269;53.330;-6.288;2022-12-18T04:28:59;100898.94;;;20.16
74750;BMP280;63269;53.330;-6.288;2022-12-18T04:31:24;100898.94;;;20.16
74750;BMP280;63269;53.330;-6.288;2022-12-18T04:33:50;100869.88;;;20.09
74750;BMP280;63269;53.330;-6.288;2022-12-18T04:36:15;100864.66;;;20.05
74750;BMP280;63269;53.330;-6.288;2022-12-18T04:38:41;100847.91;;;20.05
74750;BMP280;63269;53.330;-6.288;2022-12-18T04:41:06;100857.81;;;20.04
74750;BMP280;63269;53.330;-6.288;2022-12-18T04:43:31;100856.31;;;20.03
74750;BMP280;63269;53.330;-6.288;2022-12-18T04:46:05;100847.91;;;20.05
74750;BMP280;63269;53.330;-6.288;2022-12-18T04:48:31;100841.84;;;20.04
74750;BMP280;63269;53.330;-6.288;2022-12-18T04:50:57;100844.50;;;20.04
74750;BMP280;63269;53.330;-6.288;2022-12-18T04:53:22;100836.94;;;20.03
74750;BMP280;63269;53.330;-6.288;2022-12-18T04:55:47;100830.84;;;20.02
74750;BMP280;63269;53.330;-6.288;2022-12-18T04:58:13;100830.84;;;20.02
74750;BMP280;63269;53.330;-6.288;2022-12-18T05:00:38;100826.38;;;19.99
74750;BMP280;63269;53.330;-6.288;2022-12-18T05:03:04;100810.09;;;19.97
74750;BMP280;63269;53.330;-6.288;2022-12-18T05:05:30;100798.38;;;19.94
74750;BMP280;63269;53.330;-6.288;2022-12-18T05:07:55;100798.03;;;19.92
74750;BMP280;63269;53.330;-6.288;2022-12-18T05:10:20;100798.03;;;19.92
74750;BMP280;63269;53.330;-6.288;2022-12-18T05:12:46;100785.56;;;19.89
74750;BMP280;63269;53.330;-6.288;2022-12-18T05:15:26;100781.09;;;19.86
74750;BMP280;63269;53.330;-6.288;2022-12-18T05:17:52;100771.72;;;19.82
74750;BMP280;63269;53.330;-6.288;2022-12-18T05:20:17;100744.03;;;19.79
74750;BMP280;63269;53.330;-6.288;2022-12-18T05:22:43;100740.31;;;19.76
74750;BMP280;63269;53.330;-6.288;2022-12-18T05:25:09;100739.25;;;19.74
74750;BMP280;63269;53.330;-6.288;2022-12-18T05:27:34;100739.25;;;19.74
74750;BMP280;63269;53.330;-6.288;2022-12-18T05:29:59;100726.03;;;19.70
74750;BMP280;63269;53.330;-6.288;2022-12-18T05:32:25;100731.81;;;19.69
74750;BMP280;63269;53.330;-6.288;2022-12-18T05:34:50;100715.94;;;19.65
74750;BMP280;63269;53.330;-6.288;2022-12-18T05:37:16;100715.94;;;19.65
74750;BMP280;63269;53.330;-6.288;2022-12-18T05:39:42;100701.56;;;19.63
74750;BMP280;63269;53.330;-6.288;2022-12-18T05:42:08;100701.16;;;19.64
74750;BMP280;63269;53.330;-6.288;2022-12-18T05:44:33;100701.44;;;19.66
74750;BMP280;63269;53.330;-6.288;2022-12-18T05:46:59;100698.38;;;19.68
74750;BMP280;63269;53.330;-6.288;2022-12-18T05:49:24;100697.19;;;19.69
74750;BMP280;63269;53.330;-6.288;2022-12-18T05:51:49;100695.59;;;19.71
74750;BMP280;63269;53.330;-6.288;2022-12-18T05:54:15;100699.75;;;19.72
74750;BMP280;63269;53.330;-6.288;2022-12-18T05:56:41;100699.75;;;19.72
74750;BMP280;63269;53.330;-6.288;2022-12-18T05:59:06;100694.75;;;19.74
74750;BMP280;63269;53.330;-6.288;2022-12-18T06:01:31;100705.63;;;19.80
74750;BMP280;63269;53.330;-6.288;2022-12-18T06:03:57;100705.94;;;19.82
74750;BMP280;63269;53.330;-6.288;2022-12-18T06:06:24;100704.34;;;19.85
74750;BMP280;63269;53.330;-6.288;2022-12-18T06:08:50;100695.19;;;19.86
74750;BMP280;63269;53.330;-6.288;2022-12-18T06:11:18;100691.38;;;19.87
74750;BMP280;63269;53.330;-6.288;2022-12-18T06:13:44;100691.38;;;19.87
74750;BMP280;63269;53.330;-6.288;2022-12-18T06:16:09;100680.72;;;19.87
74750;BMP280;63269;53.330;-6.288;2022-12-18T06:18:35;100664.63;;;19.90
74750;BMP280;63269;53.330;-6.288;2022-12-18T06:21:00;100666.88;;;19.92
74750;BMP280;63269;53.330;-6.288;2022-12-18T06:23:27;100661.09;;;19.93
74750;BMP280;63269;53.330;-6.288;2022-12-18T06:25:52;100661.09;;;19.93
74750;BMP280;63269;53.330;-6.288;2022-12-18T06:28:18;100644.69;;;19.95
74750;BMP280;63269;53.330;-6.288;2022-12-18T06:30:44;100644.69;;;19.95
74750;BMP280;63269;53.330;-6.288;2022-12-18T06:33:09;100654.63;;;19.94
74750;BMP280;63269;53.330;-6.288;2022-12-18T06:35:34;100648.88;;;19.96
74750;BMP280;63269;53.330;-6.288;2022-12-18T06:38:01;100631.28;;;19.98
74750;BMP280;63269;53.330;-6.288;2022-12-18T06:40:27;100631.28;;;19.98
74750;BMP280;63269;53.330;-6.288;2022-12-18T06:42:52;100626.69;;;19.99
74750;BMP280;63269;53.330;-6.288;2022-12-18T06:45:17;100593.16;;;20.02
74750;BMP280;63269;53.330;-6.288;2022-12-18T06:47:43;100591.56;;;20.04
74750;BMP280;63269;53.330;-6.288;2022-12-18T06:50:09;100581.66;;;20.05
74750;BMP280;63269;53.330;-6.288;2022-12-18T06:52:34;100585.78;;;20.06
74750;BMP280;63269;53.330;-6.288;2022-12-18T06:55:00;100585.78;;;20.06
74750;BMP280;63269;53.330;-6.288;2022-12-18T06:57:25;100589.19;;;20.06
74750;BMP280;63269;53.330;-6.288;2022-12-18T06:59:51;100589.19;;;20.06
74750;BMP280;63269;53.330;-6.288;2022-12-18T07:02:16;100580.34;;;20.09
74750;BMP280;63269;53.330;-6.288;2022-12-18T07:04:42;100579.94;;;20.11
74750;BMP280;63269;53.330;-6.288;2022-12-18T07:07:08;100579.94;;;20.11
74750;BMP280;63269;53.330;-6.288;2022-12-18T07:09:33;100563.19;;;20.10
74750;BMP280;63269;53.330;-6.288;2022-12-18T07:11:58;100558.19;;;20.12
74750;BMP280;63269;53.330;-6.288;2022-12-18T07:14:24;100558.94;;;20.13
74750;BMP280;63269;53.330;-6.288;2022-12-18T07:16:49;100558.94;;;20.13
74750;BMP280;63269;53.330;-6.288;2022-12-18T07:19:14;100549.78;;;20.14
74750;BMP280;63269;53.330;-6.288;2022-12-18T07:21:40;100545.91;;;20.15
74750;BMP280;63269;53.330;-6.288;2022-12-18T07:24:06;100545.91;;;20.15
74750;BMP280;63269;53.330;-6.288;2022-12-18T07:26:31;100511.28;;;20.15
74750;BMP280;63269;53.330;-6.288;2022-12-18T07:28:58;100493.41;;;20.15
74750;BMP280;63269;53.330;-6.288;2022-12-18T07:31:24;100493.41;;;20.15
74750;BMP280;63269;53.330;-6.288;2022-12-18T07:33:50;100496.81;;;20.16
74750;BMP280;63269;53.330;-6.288;2022-12-18T07:36:16;100497.16;;;20.18
74750;BMP280;63269;53.330;-6.288;2022-12-18T07:38:42;100491.38;;;20.20
74750;BMP280;63269;53.330;-6.288;2022-12-18T07:41:10;100491.38;;;20.20
74750;BMP280;63269;53.330;-6.288;2022-12-18T07:43:37;100484.59;;;20.18
74750;BMP280;63269;53.330;-6.288;2022-12-18T07:46:03;100483.38;;;20.20
74750;BMP280;63269;53.330;-6.288;2022-12-18T07:48:29;100479.53;;;20.21
74750;BMP280;63269;53.330;-6.288;2022-12-18T07:51:01;100444.53;;;20.22
74750;BMP280;63269;53.330;-6.288;2022-12-18T07:53:27;100437.25;;;20.23
74750;BMP280;63269;53.330;-6.288;2022-12-18T07:56:04;100424.22;;;20.25
74750;BMP280;63269;53.330;-6.288;2022-12-18T07:58:30;100424.22;;;20.25
74750;BMP280;63269;53.330;-6.288;2022-12-18T08:01:06;100419.31;;;20.23
74750;BMP280;63269;53.330;-6.288;2022-12-18T08:03:33;100399.53;;;20.24
74750;BMP280;63269;53.330;-6.288;2022-12-18T08:06:00;100399.53;;;20.24
74750;BMP280;63269;53.330;-6.288;2022-12-18T08:08:26;100396.88;;;20.24
74750;BMP280;63269;53.330;-6.288;2022-12-18T08:10:51;100376.28;;;20.25
74750;BMP280;63269;53.330;-6.288;2022-12-18T08:13:17;100385.34;;;20.27
74750;BMP280;63269;53.330;-6.288;2022-12-18T08:15:42;100385.34;;;20.27
74750;BMP280;63269;53.330;-6.288;2022-12-18T08:18:08;100364.03;;;20.27
74750;BMP280;63269;53.330;-6.288;2022-12-18T08:20:33;100361.69;;;20.29
74750;BMP280;63269;53.330;-6.288;2022-12-18T08:22:58;100361.69;;;20.29
74750;BMP280;63269;53.330;-6.288;2022-12-18T08:25:24;100337.28;;;20.31
74750;BMP280;63269;53.330;-6.288;2022-12-18T08:27:49;100349.84;;;20.30
74750;BMP280;63269;53.330;-6.288;2022-12-18T08:30:15;100344.06;;;20.32
74750;BMP280;63269;53.330;-6.288;2022-12-18T08:32:40;100328.53;;;20.30
74750;BMP280;63269;53.330;-6.288;2022-12-18T08:35:06;100322.75;;;20.32
74750;BMP280;63269;53.330;-6.288;2022-12-18T08:37:31;100322.75;;;20.32
74750;BMP280;63269;53.330;-6.288;2022-12-18T08:39:57;100300.28;;;20.33
74750;BMP280;63269;53.330;-6.288;2022-12-18T08:42:22;100280.47;;;20.34
74750;BMP280;63269;53.330;-6.288;2022-12-18T08:45:06;100262.25;;;20.32
74750;BMP280;63269;53.330;-6.288;2022-12-18T08:47:32;100270.56;;;20.34
74750;BMP280;63269;53.330;-6.288;2022-12-18T08:49:57;100270.56;;;20.34
74750;BMP280;63269;53.330;-6.288;2022-12-18T08:52:22;100270.56;;;20.34
74750;BMP280;63269;53.330;-6.288;2022-12-18T08:54:48;100246.56;;;20.34
74750;BMP280;63269;53.330;-6.288;2022-12-18T08:57:13;100246.56;;;20.34
74750;BMP280;63269;53.330;-6.288;2022-12-18T08:59:39;100254.88;;;20.36
74750;BMP280;63269;53.330;-6.288;2022-12-18T09:02:04;100246.13;;;20.36
74750;BMP280;63269;53.330;-6.288;2022-12-18T09:04:29;100246.13;;;20.36
74750;BMP280;63269;53.330;-6.288;2022-12-18T09:06:55;100238.88;;;20.36
74750;BMP280;63269;53.330;-6.288;2022-12-18T09:09:20;100238.88;;;20.36
74750;BMP280;63269;53.330;-6.288;2022-12-18T09:11:46;100226.75;;;20.35
74750;BMP280;63269;53.330;-6.288;2022-12-18T09:14:11;100225.13;;;20.38
74750;BMP280;63269;53.330;-6.288;2022-12-18T09:16:37;100221.72;;;20.37
74750;BMP280;63269;53.330;-6.288;2022-12-18T09:19:04;100226.59;;;20.39
74750;BMP280;63269;53.330;-6.288;2022-12-18T09:21:32;100215.22;;;20.38
74750;BMP280;63269;53.330;-6.288;2022-12-18T09:23:58;100216.38;;;20.37
74750;BMP280;63269;53.330;-6.288;2022-12-18T09:26:25;100216.38;;;20.37
74750;BMP280;63269;53.330;-6.288;2022-12-18T09:28:51;100202.63;;;20.39
74750;BMP280;63269;53.330;-6.288;2022-12-18T09:31:20;100192.75;;;20.40
74750;BMP280;63269;53.330;-6.288;2022-12-18T09:33:46;100162.69;;;20.39
74750;BMP280;63269;53.330;-6.288;2022-12-18T09:36:14;100168.00;;;20.39
74750;BMP280;63269;53.330;-6.288;2022-12-18T09:38:39;100158.84;;;20.40
74750;BMP280;63269;53.330;-6.288;2022-12-18T09:43:52;100146.69;;;20.39
74750;BMP280;63269;53.330;-6.288;2022-12-18T09:46:23;100138.72;;;20.39
74750;BMP280;63269;53.330;-6.288;2022-12-18T09:48:52;100123.59;;;20.36
74750;BMP280;63269;53.330;-6.288;2022-12-18T09:51:28;100132.22;;;20.40
74750;BMP280;63269;53.330;-6.288;2022-12-18T09:54:20;100115.50;;;20.40
74750;BMP280;63269;53.330;-6.288;2022-12-18T09:56:46;100115.50;;;20.40
74750;BMP280;63269;53.330;-6.288;2022-12-18T09:59:35;100118.16;;;20.40
74750;BMP280;63269;53.330;-6.288;2022-12-18T10:02:17;100118.16;;;20.40
74750;BMP280;63269;53.330;-6.288;2022-12-18T10:04:43;100101.41;;;20.39
74750;BMP280;63269;53.330;-6.288;2022-12-18T10:10:00;100100.53;;;20.42
74750;BMP280;63269;53.330;-6.288;2022-12-18T10:12:51;100097.88;;;20.42
74750;BMP280;63269;53.330;-6.288;2022-12-18T10:16:00;100107.78;;;20.42
74750;BMP280;63269;53.330;-6.288;2022-12-18T10:20:54;100110.00;;;20.43
74750;BMP280;63269;53.330;-6.288;2022-12-18T10:23:33;100112.66;;;20.43
74750;BMP280;63269;53.330;-6.288;2022-12-18T10:26:05;100110.00;;;20.43
74750;BMP280;63269;53.330;-6.288;2022-12-18T10:28:33;100103.50;;;20.44
74750;BMP280;63269;53.330;-6.288;2022-12-18T10:30:58;100105.44;;;20.44
74750;BMP280;63269;53.330;-6.288;2022-12-18T10:33:28;100114.88;;;20.45
74750;BMP280;63269;53.330;-6.288;2022-12-18T10:35:55;100107.63;;;20.45
74750;BMP280;63269;53.330;-6.288;2022-12-18T10:38:26;100106.16;;;20.44
74750;BMP280;63269;53.330;-6.288;2022-12-18T10:41:08;100103.50;;;20.44
74750;BMP280;63269;53.330;-6.288;2022-12-18T10:44:16;100094.31;;;20.45
74750;BMP280;63269;53.330;-6.288;2022-12-18T10:46:42;100104.22;;;20.45
74750;BMP280;63269;53.330;-6.288;2022-12-18T10:49:19;100101.13;;;20.46
74750;BMP280;63269;53.330;-6.288;2022-12-18T10:51:45;100090.88;;;20.45
74750;BMP280;63269;53.330;-6.288;2022-12-18T10:54:19;100085.16;;;20.46
74750;BMP280;63269;53.330;-6.288;2022-12-18T10:56:46;100087.81;;;20.46
74750;BMP280;63269;53.330;-6.288;2022-12-18T10:59:14;100088.56;;;20.47
74750;BMP280;63269;53.330;-6.288;2022-12-18T11:01:56;100095.63;;;20.50
74750;BMP280;63269;53.330;-6.288;2022-12-18T11:04:28;100090.31;;;20.50
74750;BMP280;63269;53.330;-6.288;2022-12-18T11:07:14;100083.81;;;20.51
74750;BMP280;63269;53.330;-6.288;2022-12-18T11:09:40;100077.72;;;20.50
74750;BMP280;63269;53.330;-6.288;2022-12-18T11:12:19;100070.50;;;20.51
74750;BMP280;63269;53.330;-6.288;2022-12-18T11:14:52;100058.66;;;20.52
74750;BMP280;63269;53.330;-6.288;2022-12-18T11:17:34;100048.75;;;20.52
74750;BMP280;63269;53.330;-6.288;2022-12-18T11:20:01;100037.34;;;20.52
74750;BMP280;63269;53.330;-6.288;2022-12-18T11:22:29;100023.56;;;20.53
74750;BMP280;63269;53.330;-6.288;2022-12-18T11:24:58;100008.78;;;20.52
74750;BMP280;63269;53.330;-6.288;2022-12-18T11:27:24;100004.19;;;20.53
74750;BMP280;63269;53.330;-6.288;2022-12-18T11:29:50;99995.00;;;20.54
74750;BMP280;63269;53.330;-6.288;2022-12-18T11:32:31;99991.16;;;20.55
74750;BMP280;63269;53.330;-6.288;2022-12-18T11:37:36;99982.88;;;20.53
74750;BMP280;63269;53.330;-6.288;2022-12-18T11:40:07;99967.91;;;20.55
74750;BMP280;63269;53.330;-6.288;2022-12-18T11:42:40;99958.00;;;20.56
74750;BMP280;63269;53.330;-6.288;2022-12-18T11:47:49;99932.84;;;20.57
74750;BMP280;63269;53.330;-6.288;2022-12-18T11:50:21;99930.91;;;20.57
74750;BMP280;63269;53.330;-6.288;2022-12-18T11:52:49;99917.59;;;20.57
74750;BMP280;63269;53.330;-6.288;2022-12-18T11:55:18;99910.31;;;20.58
74750;BMP280;63269;53.330;-6.288;2022-12-18T12:00:20;99891.97;;;20.60
74750;BMP280;63269;53.330;-6.288;2022-12-18T12:37:33;99817.50;;;20.66
74750;BMP280;63269;53.330;-6.288;2022-12-18T12:40:02;99799.56;;;20.66
74750;BMP280;63269;53.330;-6.288;2022-12-18T12:42:44;99794.53;;;20.68
74750;BMP280;63269;53.330;-6.288;2022-12-18T12:45:54;99774.22;;;20.71
74750;BMP280;63269;53.330;-6.288;2022-12-18T12:50:46;99755.13;;;20.72
74750;BMP280;63269;53.330;-6.288;2022-12-18T12:53:23;99760.28;;;20.76
74750;BMP280;63269;53.330;-6.288;2022-12-18T12:55:51;99743.09;;;20.77
74750;BMP280;63269;53.330;-6.288;2022-12-18T12:58:31;99747.50;;;20.80
74750;BMP280;63269;53.330;-6.288;2022-12-18T13:01:08;99737.16;;;20.82
74750;BMP280;63269;53.330;-6.288;2022-12-18T13:06:35;99718.31;;;20.86
74750;BMP280;63269;53.330;-6.288;2022-12-18T13:08:58;99713.41;;;20.84
74750;BMP280;63269;53.330;-6.288;2022-12-18T13:14:34;99704.34;;;20.91
74750;BMP280;63269;53.330;-6.288;2022-12-18T13:17:29;99691.31;;;20.93
74750;BMP280;63269;53.330;-6.288;2022-12-18T13:20:12;99682.09;;;20.94
74750;BMP280;63269;53.330;-6.288;2022-12-18T13:22:47;99685.06;;;20.96
74750;BMP280;63269;53.330;-6.288;2022-12-18T13:25:34;99668.59;;;20.97
74750;BMP280;63269;53.330;-6.288;2022-12-18T13:28:04;99650.69;;;20.98
74750;BMP280;63269;53.330;-6.288;2022-12-18T13:46:20;99609.03;;;21.00
74750;BMP280;63269;53.330;-6.288;2022-12-18T13:48:52;99616.31;;;21.00
74750;BMP280;63269;53.330;-6.288;2022-12-18T13:51:19;99609.03;;;21.00
74750;BMP280;63269;53.330;-6.288;2022-12-18T13:53:54;99609.31;;;21.03
74750;BMP280;63269;53.330;-6.288;2022-12-18T13:56:28;99610.06;;;21.03
74750;BMP280;63269;53.330;-6.288;2022-12-18T13:59:22;99603.34;;;21.08
74750;BMP280;63269;53.330;-6.288;2022-12-18T14:01:52;99592.69;;;21.08
74750;BMP280;63269;53.330;-6.288;2022-12-18T14:04:21;99582.00;;;21.08
74750;BMP280;63269;53.330;-6.288;2022-12-18T14:06:50;99580.09;;;21.08
74750;BMP280;63269;53.330;-6.288;2022-12-18T14:09:27;99570.06;;;21.03
74750;BMP280;63269;53.330;-6.288;2022-12-18T14:11:54;99574.22;;;21.04
74750;BMP280;63269;53.330;-6.288;2022-12-18T14:14:45;99552.91;;;21.04
74750;BMP280;63269;53.330;-6.288;2022-12-18T14:17:13;99556.00;;;21.03
74750;BMP280;63269;53.330;-6.288;2022-12-18T14:19:50;99547.72;;;21.00
74750;BMP280;63269;53.330;-6.288;2022-12-18T14:22:26;99553.06;;;21.00
74750;BMP280;63269;53.330;-6.288;2022-12-18T14:25:22;99564.19;;;20.99
74750;BMP280;63269;53.330;-6.288;2022-12-18T14:27:52;99552.06;;;20.98
74750;BMP280;63269;53.330;-6.288;2022-12-18T14:35:30;99565.84;;;20.96
74750;BMP280;63269;53.330;-6.288;2022-12-18T14:38:22;99561.72;;;20.95
74750;BMP280;63269;53.330;-6.288;2022-12-18T14:41:15;99531.38;;;20.93
74750;BMP280;63269;53.330;-6.288;2022-12-18T14:43:47;99519.25;;;20.92
74750;BMP280;63269;53.330;-6.288;2022-12-18T14:48:58;99510.97;;;20.90
74750;BMP280;63269;53.330;-6.288;2022-12-18T14:51:34;99502.25;;;20.89
74750;BMP280;63269;53.330;-6.288;2022-12-18T14:54:02;99510.25;;;20.89
74750;BMP280;63269;53.330;-6.288;2022-12-18T14:58:57;99504.69;;;20.87
74750;BMP280;63269;53.330;-6.288;2022-12-18T15:03:52;99505.84;;;20.86
74750;BMP280;63269;53.330;-6.288;2022-12-18T15:06:26;99491.78;;;20.86
74750;BMP280;63269;53.330;-6.288;2022-12-18T15:08:52;99482.31;;;20.85
74750;BMP280;63269;53.330;-6.288;2022-12-18T15:11:45;99480.84;;;20.84
74750;BMP280;63269;53.330;-6.288;2022-12-18T15:14:28;99485.47;;;20.83
74750;BMP280;63269;53.330;-6.288;2022-12-18T15:16:57;99487.38;;;20.83
74750;BMP280;63269;53.330;-6.288;2022-12-18T15:19:49;99472.59;;;20.82
74750;BMP280;63269;53.330;-6.288;2022-12-18T15:24:49;99478.38;;;20.80
74750;BMP280;63269;53.330;-6.288;2022-12-18T15:27:25;99489.78;;;20.81
74750;BMP280;63269;53.330;-6.288;2022-12-18T15:32:38;99484.16;;;20.78
74750;BMP280;63269;53.330;-6.288;2022-12-18T15:37:43;99469.63;;;20.79
74750;BMP280;63269;53.330;-6.288;2022-12-18T15:40:25;99455.31;;;20.77
74750;BMP280;63269;53.330;-6.288;2022-12-18T15:42:53;99463.31;;;20.77
74750;BMP280;63269;53.330;-6.288;2022-12-18T15:45:38;99458.75;;;20.77
74750;BMP280;63269;53.330;-6.288;2022-12-18T15:48:18;99473.97;;;20.77
74750;BMP280;63269;53.330;-6.288;2022-12-18T15:50:44;99462.59;;;20.76
74750;BMP280;63269;53.330;-6.288;2022-12-18T15:53:09;99437.13;;;20.75
74750;BMP280;63269;53.330;-6.288;2022-12-18T15:55:35;99435.66;;;20.74
74750;BMP280;63269;53.330;-6.288;2022-12-18T15:58:19;99451.66;;;20.74
74750;BMP280;63269;53.330;-6.288;2022-12-18T16:00:45;99412.41;;;20.75